Time;durP1;ratioP1;P1;durP2;ratioP2;P2;SDS_P1;SDS_P2;PMS_P1;PMS_P2;Temp;Humidity;BMP_temperature;BMP_pressure;BME280_temperature;BME280_humidity;BME280_pressure;Samples;Min_cycle;Max_cycle;Signal;HPM_P1;HPM_P2
2022/10/10 00:01:40;;;;;;;8.88;3.35;;;9.60;84.90;;;;;;5016643;28;20514;-46
2022/10/10 00:04:07;;;;;;;5.65;2.78;;;9.60;85.00;;;;;;5013764;28;20478;-47
2022/10/10 00:06:34;;;;;;;7.90;3.15;;;9.50;84.90;;;;;;5010075;28;20428;-47
2022/10/10 00:09:02;;;;;;;4.85;2.65;;;9.50;84.80;;;;;;5012315;28;20030;-47
2022/10/10 00:11:29;;;;;;;6.30;2.78;;;9.50;84.70;;;;;;5000323;28;20485;-48
2022/10/10 00:13:56;;;;;;;6.00;2.58;;;9.50;84.90;;;;;;5024132;28;20029;-47
2022/10/10 00:16:24;;;;;;;7.93;2.60;;;9.40;84.90;;;;;;5017529;28;20076;-48
2022/10/10 00:18:52;;;;;;;11.23;3.90;;;9.40;84.90;;;;;;5019747;28;20036;-47
2022/10/10 00:21:20;;;;;;;7.15;2.63;;;9.40;84.70;;;;;;4997619;28;20033;-47
2022/10/10 00:23:47;;;;;;;8.20;2.55;;;9.40;84.80;;;;;;5015162;28;20046;-50
2022/10/10 00:26:14;;;;;;;7.75;3.55;;;9.40;84.90;;;;;;4998080;28;20103;-50
2022/10/10 00:28:42;;;;;;;7.75;3.03;;;9.40;84.80;;;;;;5015162;28;20034;-50
2022/10/10 00:31:18;;;;;;;6.22;2.45;;;9.40;84.80;;;;;;5014262;28;20131;-46
2022/10/10 00:33:47;;;;;;;8.98;3.33;;;9.40;84.80;;;;;;5014087;28;20180;-48
2022/10/10 00:36:19;;;;;;;8.48;2.95;;;9.40;84.80;;;;;;4999755;28;20060;-48
2022/10/10 00:38:46;;;;;;;7.25;2.58;;;9.30;84.80;;;;;;5001213;28;20026;-49
2022/10/10 00:41:12;;;;;;;9.00;2.95;;;9.30;84.90;;;;;;5030393;28;20370;-49
2022/10/10 00:43:38;;;;;;;5.13;2.22;;;9.30;84.90;;;;;;5033385;28;20029;-48
2022/10/10 00:46:10;;;;;;;4.82;2.08;;;9.30;84.90;;;;;;5017040;28;20052;-52
2022/10/10 00:48:40;;;;;;;5.47;2.17;;;9.30;85.00;;;;;;5033330;28;20045;-51
2022/10/10 00:51:13;;;;;;;6.28;2.50;;;9.30;85.00;;;;;;5015708;28;20123;-50
2022/10/10 00:54:12;;;;;;;5.00;2.50;;;9.30;85.00;;;;;;5033033;28;20021;-49
2022/10/10 00:56:47;;;;;;;4.55;2.15;;;9.20;85.00;;;;;;5013478;28;20057;-49
2022/10/10 00:59:17;;;;;;;8.05;3.35;;;9.30;85.00;;;;;;5001613;28;20042;-47
2022/10/10 01:01:44;;;;;;;10.20;2.78;;;9.20;84.90;;;;;;5034121;28;20026;-49
2022/10/10 01:04:37;;;;;;;4.40;2.75;;;9.20;84.90;;;;;;5016113;28;20072;-49
2022/10/10 01:07:10;;;;;;;6.93;2.25;;;9.20;84.60;;;;;;4996133;28;20095;-52
2022/10/10 01:09:38;;;;;;;5.55;2.40;;;9.20;84.50;;;;;;4997771;28;20748;-51
2022/10/10 01:12:13;;;;;;;7.27;2.30;;;9.20;84.50;;;;;;4994776;28;20030;-49
2022/10/10 01:15:16;;;;;;;6.10;2.70;;;9.10;84.30;;;;;;5017854;28;20409;-47
2022/10/10 01:18:25;;;;;;;5.57;2.47;;;9.10;84.20;;;;;;5031226;28;20029;-46
2022/10/10 01:21:12;;;;;;;5.50;2.60;;;9.10;84.10;;;;;;5033581;28;20029;-51
2022/10/10 01:24:02;;;;;;;6.97;2.80;;;9.20;84.00;;;;;;5032406;28;20461;-46
2022/10/10 01:27:06;;;;;;;5.85;2.10;;;9.10;83.80;;;;;;5013608;28;20037;-46
2022/10/10 01:29:51;;;;;;;4.60;1.95;;;9.10;83.80;;;;;;5032281;28;20033;-48
2022/10/10 01:32:43;;;;;;;5.55;2.60;;;9.10;83.90;;;;;;5033494;28;20084;-47
2022/10/10 01:35:46;;;;;;;6.78;2.35;;;9.00;84.00;;;;;;5033332;28;20041;-50
2022/10/10 01:38:50;;;;;;;5.38;2.60;;;9.00;84.10;;;;;;5032081;28;20116;-48
2022/10/10 01:41:18;;;;;;;7.57;2.95;;;9.00;84.10;;;;;;5029444;28;20116;-47
2022/10/10 01:43:56;;;;;;;5.55;2.45;;;9.00;84.20;;;;;;5033277;28;20112;-47
2022/10/10 01:46:26;;;;;;;4.30;2.22;;;8.90;84.00;;;;;;5033221;28;20025;-48
2022/10/10 01:49:03;;;;;;;6.47;2.50;;;8.90;84.40;;;;;;4999191;28;20045;-47
2022/10/10 01:51:56;;;;;;;11.50;3.33;;;8.90;84.50;;;;;;5013310;28;20129;-47
2022/10/10 01:54:59;;;;;;;6.25;3.25;;;8.90;84.40;;;;;;4995885;28;20036;-47
2022/10/10 01:58:12;;;;;;;8.32;2.97;;;8.90;84.30;;;;;;5021907;28;20124;-47
2022/10/10 02:01:22;;;;;;;5.53;3.30;;;8.90;84.40;;;;;;5028436;28;20036;-45
2022/10/10 02:04:03;;;;;;;7.07;2.83;;;8.90;84.40;;;;;;5026231;28;20075;-50
2022/10/10 02:06:42;;;;;;;8.55;2.60;;;8.90;84.40;;;;;;5015850;28;20428;-48
2022/10/10 02:09:14;;;;;;;6.95;2.65;;;8.80;84.30;;;;;;5011387;28;20037;-50
2022/10/10 02:11:40;;;;;;;8.80;2.72;;;8.90;84.40;;;;;;4999477;28;20046;-50
2022/10/10 02:14:14;;;;;;;4.30;2.38;;;8.80;84.50;;;;;;5032134;28;20033;-47
2022/10/10 02:16:44;;;;;;;5.78;2.75;;;8.80;84.40;;;;;;4997241;28;20120;-45
2022/10/10 02:19:13;;;;;;;;;;;8.80;84.30;;;;;;5033049;28;20458;-48
2022/10/10 02:21:50;;;;;;;5.00;3.08;;;8.80;84.40;;;;;;5015629;28;19909;-48
2022/10/10 02:24:21;;;;;;;7.65;2.47;;;8.80;84.40;;;;;;5030717;28;20104;-50
2022/10/10 02:27:00;;;;;;;7.65;2.83;;;8.80;84.40;;;;;;5032182;28;20117;-47
2022/10/10 02:29:30;;;;;;;4.57;2.50;;;8.80;84.60;;;;;;5032770;28;20044;-46
2022/10/10 02:32:10;;;;;;;6.70;2.72;;;8.80;84.50;;;;;;5019562;28;20040;-49
2022/10/10 02:34:40;;;;;;;5.18;2.65;;;8.80;84.30;;;;;;5035668;28;20032;-50
2022/10/10 02:37:06;;;;;;;;;;;8.80;84.40;;;;;;5030437;28;20529;-49
2022/10/10 02:39:40;;;;;;;6.15;2.50;;;8.70;84.40;;;;;;5034456;28;20015;-51
2022/10/10 02:42:11;;;;;;;7.82;2.53;;;8.70;84.30;;;;;;5018994;28;20112;-46
2022/10/10 02:44:38;;;;;;;6.35;2.53;;;8.70;84.40;;;;;;5018586;28;20033;-49
2022/10/10 02:47:04;;;;;;;6.38;2.75;;;8.70;84.30;;;;;;5034520;28;20060;-47
2022/10/10 02:49:34;;;;;;;5.63;2.50;;;8.70;84.40;;;;;;5035169;28;20454;-48
2022/10/10 02:52:02;;;;;;;8.35;3.53;;;8.70;84.50;;;;;;5019572;28;20033;-50
2022/10/10 02:54:31;;;;;;;5.78;2.63;;;8.70;84.60;;;;;;5034505;28;20040;-48
2022/10/10 02:56:58;;;;;;;7.93;3.05;;;8.70;84.40;;;;;;5035353;28;20025;-48
2022/10/10 02:59:24;;;;;;;6.22;2.30;;;8.70;84.60;;;;;;5036431;28;20025;-51
2022/10/10 03:01:52;;;;;;;8.45;2.83;;;8.70;84.50;;;;;;5034924;28;20312;-50
2022/10/10 03:04:20;;;;;;;5.03;2.92;;;8.70;84.40;;;;;;5036262;28;20037;-51
2022/10/10 03:06:46;;;;;;;8.88;2.70;;;8.70;84.30;;;;;;5051670;28;20037;-50
2022/10/10 03:09:13;;;;;;;7.63;2.88;;;8.70;84.30;;;;;;5034632;28;20437;-48
2022/10/10 03:11:39;;;;;;;6.05;2.70;;;8.60;84.50;;;;;;5035615;28;20064;-47
2022/10/10 03:14:06;;;;;;;4.70;2.20;;;8.60;84.40;;;;;;5036110;28;20351;-49
2022/10/10 03:16:36;;;;;;;6.88;2.97;;;8.60;84.50;;;;;;5034907;28;20048;-49
2022/10/10 03:19:02;;;;;;;9.55;3.00;;;8.60;84.40;;;;;;5034424;28;20037;-51
2022/10/10 03:21:28;;;;;;;5.88;3.05;;;8.60;84.40;;;;;;5035729;28;20029;-49
2022/10/10 03:23:56;;;;;;;7.18;3.00;;;8.60;84.60;;;;;;5034565;28;20029;-48
2022/10/10 03:26:23;;;;;;;5.30;2.67;;;8.60;84.30;;;;;;5034866;28;20087;-48
2022/10/10 03:28:49;;;;;;;6.05;2.47;;;8.60;84.20;;;;;;5035884;28;20025;-48
2022/10/10 03:31:16;;;;;;;6.60;2.90;;;8.60;84.10;;;;;;5034662;28;20036;-47
2022/10/10 03:33:44;;;;;;;5.78;2.50;;;8.60;84.40;;;;;;5034600;28;20405;-46
2022/10/10 03:36:12;;;;;;;5.47;3.30;;;8.50;84.40;;;;;;5043534;28;20053;-49
2022/10/10 03:38:39;;;;;;;4.97;2.38;;;8.50;84.30;;;;;;5037003;28;20037;-50
2022/10/10 03:41:06;;;;;;;13.52;3.28;;;8.50;84.60;;;;;;5015751;28;20052;-47
2022/10/10 03:43:32;;;;;;;6.60;3.75;;;8.50;84.50;;;;;;5033745;28;20091;-51
2022/10/10 03:46:03;;;;;;;6.68;2.50;;;8.50;84.50;;;;;;5035456;28;20025;-50
2022/10/10 03:48:35;;;;;;;5.15;2.90;;;8.40;84.40;;;;;;5047944;28;20045;-46
2022/10/10 03:51:01;;;;;;;7.85;2.88;;;8.40;84.60;;;;;;5055250;28;20456;-47
2022/10/10 03:53:29;;;;;;;6.75;2.80;;;8.40;84.50;;;;;;5036821;28;20078;-46
2022/10/10 03:55:56;;;;;;;6.18;2.72;;;8.40;84.50;;;;;;5053988;28;20033;-46
2022/10/10 03:58:24;;;;;;;5.68;2.95;;;8.40;84.50;;;;;;5055002;28;20350;-51
2022/10/10 04:01:01;;;;;;;5.55;2.75;;;8.40;84.70;;;;;;5054066;28;20043;-49
2022/10/10 04:03:30;;;;;;;4.25;2.53;;;8.40;84.70;;;;;;5054892;28;20048;-47
2022/10/10 04:05:56;;;;;;;5.82;3.08;;;8.40;84.60;;;;;;5036350;28;20067;-48
2022/10/10 04:08:24;;;;;;;6.68;2.45;;;8.40;84.80;;;;;;5050009;28;20313;-50
2022/10/10 04:10:53;;;;;;;4.68;2.40;;;8.40;84.80;;;;;;5050656;28;20017;-50
2022/10/10 04:13:21;;;;;;;5.88;3.00;;;8.30;85.00;;;;;;5037929;28;20055;-50
2022/10/10 04:15:52;;;;;;;6.10;2.70;;;8.30;85.00;;;;;;5019360;28;20095;-47
2022/10/10 04:18:18;;;;;;;4.70;2.75;;;8.30;84.80;;;;;;4992200;28;20374;-48
2022/10/10 04:20:44;;;;;;;3.72;2.42;;;8.20;85.00;;;;;;5037138;28;20029;-51
2022/10/10 04:23:11;;;;;;;7.22;3.58;;;8.20;85.00;;;;;;5054367;28;20041;-47
2022/10/10 04:25:38;;;;;;;7.40;2.88;;;8.20;85.10;;;;;;5054367;28;20021;-49
2022/10/10 04:28:04;;;;;;;5.47;2.72;;;8.30;84.90;;;;;;5032585;28;20087;-48
2022/10/10 04:30:33;;;;;;;5.95;3.25;;;8.20;84.80;;;;;;5034586;28;20048;-50
2022/10/10 04:32:59;;;;;;;;;;;8.20;84.80;;;;;;5039886;28;20036;-47
2022/10/10 04:35:31;;;;;;;6.20;2.75;;;8.20;85.10;;;;;;5054201;28;19908;-50
2022/10/10 04:37:58;;;;;;;5.50;2.88;;;8.20;84.80;;;;;;5036223;28;20037;-47
2022/10/10 04:40:25;;;;;;;8.23;3.20;;;8.20;84.90;;;;;;5039743;28;20332;-47
2022/10/10 04:42:53;;;;;;;6.28;2.75;;;8.20;84.80;;;;;;5036899;28;20391;-52
2022/10/10 04:45:21;;;;;;;6.47;3.35;;;8.20;85.10;;;;;;5054182;28;20016;-51
2022/10/10 04:47:47;;;;;;;10.63;3.90;;;8.10;85.10;;;;;;5054357;28;20350;-49
2022/10/10 04:50:13;;;;;;;6.00;3.05;;;8.10;84.90;;;;;;5018987;28;20033;-47
2022/10/10 04:52:40;;;;;;;7.57;3.35;;;8.10;85.10;;;;;;5035380;28;20048;-46
2022/10/10 04:55:07;;;;;;;4.85;2.83;;;8.00;85.10;;;;;;5054007;28;20056;-49
2022/10/10 04:57:35;;;;;;;5.32;2.80;;;8.00;85.40;;;;;;5049911;28;20319;-51
2022/10/10 05:00:03;;;;;;;9.02;3.53;;;8.00;85.40;;;;;;5033396;28;20025;-48
2022/10/10 05:02:30;;;;;;;7.90;3.10;;;8.00;85.50;;;;;;5030142;28;20032;-48
2022/10/10 05:04:59;;;;;;;4.63;2.83;;;8.00;85.30;;;;;;5032261;28;20120;-48
2022/10/10 05:07:27;;;;;;;4.05;2.65;;;7.90;85.30;;;;;;5028230;28;20025;-49
2022/10/10 05:09:55;;;;;;;5.45;2.83;;;7.90;85.50;;;;;;5052256;28;20044;-50
2022/10/10 05:12:23;;;;;;;7.25;3.17;;;7.90;85.50;;;;;;5053483;28;20028;-45
2022/10/10 05:14:51;;;;;;;8.40;3.53;;;7.90;85.80;;;;;;5035578;28;20070;-46
2022/10/10 05:17:19;;;;;;;6.50;3.72;;;7.90;85.90;;;;;;5053700;28;20017;-48
2022/10/10 05:19:50;;;;;;;5.38;3.00;;;7.90;85.90;;;;;;5052907;28;20025;-45
2022/10/10 05:22:16;;;;;;;8.30;3.20;;;7.90;85.80;;;;;;5052507;28;20029;-49
2022/10/10 05:24:42;;;;;;;7.30;3.53;;;7.90;85.60;;;;;;5035769;28;20043;-46
2022/10/10 05:27:11;;;;;;;4.10;3.05;;;7.80;85.90;;;;;;5052271;28;20037;-47
2022/10/10 05:29:38;;;;;;;11.05;3.78;;;7.80;85.80;;;;;;5053645;28;20031;-46
2022/10/10 05:32:03;;;;;;;8.68;3.53;;;7.80;85.60;;;;;;5035688;28;20024;-45
2022/10/10 05:34:30;;;;;;;7.47;3.55;;;7.80;85.90;;;;;;5051687;28;20549;-46
2022/10/10 05:36:58;;;;;;;6.03;3.13;;;7.80;85.90;;;;;;5052344;28;20081;-45
2022/10/10 05:39:25;;;;;;;7.32;2.70;;;7.80;86.00;;;;;;5052058;28;20028;-48
2022/10/10 05:41:52;;;;;;;9.57;3.45;;;7.70;85.80;;;;;;5052057;28;20032;-46
2022/10/10 05:44:17;;;;;;;7.65;3.53;;;7.70;85.90;;;;;;5053004;28;20029;-49
2022/10/10 05:46:44;;;;;;;6.43;3.35;;;7.70;86.00;;;;;;5052996;28;20107;-48
2022/10/10 05:49:11;;;;;;;5.95;3.40;;;7.70;85.90;;;;;;5052161;28;20032;-46
2022/10/10 05:51:42;;;;;;;5.63;3.10;;;7.70;86.10;;;;;;5034524;28;20112;-52
2022/10/10 05:54:09;;;;;;;7.07;3.38;;;7.70;86.10;;;;;;5052153;28;20067;-48
2022/10/10 05:56:37;;;;;;;4.53;3.20;;;7.70;86.00;;;;;;5051974;28;20029;-47
2022/10/10 05:59:04;;;;;;;6.18;3.67;;;7.70;86.10;;;;;;5053159;28;20087;-50
2022/10/10 06:01:31;;;;;;;6.93;4.05;;;7.70;86.10;;;;;;5018905;28;20033;-51
2022/10/10 06:03:57;;;;;;;6.18;3.53;;;7.60;86.10;;;;;;5051647;28;20342;-47
2022/10/10 06:06:25;;;;;;;8.75;3.35;;;7.60;86.20;;;;;;5034479;28;20029;-49
2022/10/10 06:08:52;;;;;;;7.70;3.67;;;7.60;86.20;;;;;;5035037;28;20095;-45
2022/10/10 06:11:23;;;;;;;4.80;3.33;;;7.60;86.20;;;;;;5033232;28;20040;-51
2022/10/10 06:13:53;;;;;;;7.18;3.63;;;7.60;86.20;;;;;;5051757;28;20033;-48
2022/10/10 06:16:25;;;;;;;8.50;3.33;;;7.60;86.30;;;;;;5018755;28;20106;-50
2022/10/10 06:18:51;;;;;;;8.05;3.88;;;7.60;86.40;;;;;;5052942;28;20127;-51
2022/10/10 06:21:17;;;;;;;5.95;3.35;;;7.70;86.40;;;;;;5033663;28;20108;-49
2022/10/10 06:23:46;;;;;;;5.43;3.28;;;7.70;86.40;;;;;;5018687;28;20361;-47
2022/10/10 06:26:14;;;;;;;9.43;4.15;;;7.70;86.20;;;;;;5051709;28;20051;-49
2022/10/10 06:28:40;;;;;;;9.38;3.90;;;7.70;86.30;;;;;;5033065;28;20113;-45
2022/10/10 06:31:10;;;;;;;6.80;3.80;;;7.80;86.20;;;;;;5014912;28;20037;-46
2022/10/10 06:33:38;;;;;;;;;;;7.80;86.30;;;;;;5008391;28;20099;-47
2022/10/10 06:36:06;;;;;;;8.35;4.65;;;7.80;86.30;;;;;;5051523;28;19920;-46
2022/10/10 06:38:37;;;;;;;6.00;3.50;;;7.80;86.30;;;;;;5052329;28;20041;-48
2022/10/10 06:41:04;;;;;;;6.43;4.00;;;7.90;86.20;;;;;;4999294;28;20095;-46
2022/10/10 06:43:34;;;;;;;9.65;4.22;;;7.90;86.10;;;;;;4999208;28;20057;-45
2022/10/10 06:46:01;;;;;;;5.47;3.20;;;7.90;86.20;;;;;;5015464;28;20463;-47
2022/10/10 06:48:30;;;;;;;6.68;3.55;;;7.90;86.00;;;;;;5050067;28;20036;-46
2022/10/10 06:51:06;;;;;;;6.30;3.83;;;8.00;86.00;;;;;;5051337;28;20124;-48
2022/10/10 06:53:32;;;;;;;4.85;3.40;;;8.10;85.90;;;;;;5018176;28;20041;-47
2022/10/10 06:56:04;;;;;;;6.75;3.85;;;8.10;85.90;;;;;;5052708;28;20025;-49
2022/10/10 06:58:31;;;;;;;7.72;4.40;;;8.20;85.70;;;;;;5052030;28;20091;-46
2022/10/10 07:01:01;;;;;;;6.90;3.80;;;8.20;85.60;;;;;;5016345;28;20064;-48
2022/10/10 07:03:30;;;;;;;7.40;3.28;;;8.30;85.50;;;;;;5026302;28;20055;-49
2022/10/10 07:06:00;;;;;;;8.48;3.75;;;8.40;85.20;;;;;;5022914;28;20060;-47
2022/10/10 07:08:28;;;;;;;5.55;3.38;;;8.40;85.30;;;;;;5043161;28;20365;-46
2022/10/10 07:10:56;;;;;;;5.40;3.70;;;8.40;85.10;;;;;;5035051;28;20416;-49
2022/10/10 07:13:29;;;;;;;5.90;3.08;;;8.50;85.20;;;;;;5052673;28;20041;-48
2022/10/10 07:15:54;;;;;;;9.73;3.55;;;8.50;85.00;;;;;;5052991;28;20043;-47
2022/10/10 07:18:20;;;;;;;6.30;3.75;;;8.60;85.00;;;;;;5055869;28;20020;-47
2022/10/10 07:20:48;;;;;;;5.43;3.53;;;8.60;85.00;;;;;;5054339;28;20029;-48
2022/10/10 07:23:14;;;;;;;8.02;4.35;;;8.60;84.80;;;;;;5038165;28;20029;-48
2022/10/10 07:25:42;;;;;;;5.28;3.47;;;8.70;84.80;;;;;;5005232;28;20047;-49
2022/10/10 07:28:10;;;;;;;5.70;3.55;;;8.80;84.90;;;;;;5018312;28;20048;-48
2022/10/10 07:30:49;;;;;;;7.38;3.85;;;8.90;84.70;;;;;;5018320;28;20042;-46
2022/10/10 07:33:16;;;;;;;5.57;3.45;;;9.00;84.50;;;;;;5018245;28;20498;-46
2022/10/10 07:35:53;;;;;;;6.40;3.85;;;9.20;84.30;;;;;;5045986;28;20036;-47
2022/10/10 07:38:20;;;;;;;6.10;3.70;;;9.50;83.90;;;;;;5021739;28;20358;-49
2022/10/10 07:40:48;;;;;;;7.13;3.72;;;9.70;82.50;;;;;;5037912;28;20033;-49
2022/10/10 07:43:18;;;;;;;6.68;3.85;;;9.90;82.20;;;;;;5055547;28;20032;-46
2022/10/10 07:45:47;;;;;;;6.20;3.50;;;10.30;81.90;;;;;;5054066;28;20323;-46
2022/10/10 07:48:15;;;;;;;8.48;3.50;;;10.60;80.70;;;;;;5055341;28;20442;-47
2022/10/10 07:50:45;;;;;;;6.50;3.28;;;10.90;80.10;;;;;;5054412;28;20079;-49
2022/10/10 07:53:15;;;;;;;6.80;3.63;;;11.10;79.20;;;;;;5037904;28;20040;-46
2022/10/10 07:55:42;;;;;;;7.45;3.53;;;11.20;78.70;;;;;;5054178;28;20508;-46
2022/10/10 07:58:12;;;;;;;7.72;3.10;;;11.30;78.40;;;;;;5055123;28;20029;-46
2022/10/10 08:00:41;;;;;;;5.65;3.30;;;11.40;78.70;;;;;;5037741;28;20039;-47
2022/10/10 08:03:10;;;;;;;4.97;3.17;;;11.80;77.50;;;;;;5036763;28;20029;-50
2022/10/10 08:05:45;;;;;;;6.97;3.05;;;11.90;76.40;;;;;;5054243;28;20132;-46
2022/10/10 08:08:12;;;;;;;4.93;3.28;;;12.00;76.20;;;;;;5055084;28;20037;-47
2022/10/10 08:10:42;;;;;;;6.22;2.83;;;12.20;75.80;;;;;;5054826;28;20036;-48
2022/10/10 08:13:08;;;;;;;10.95;3.65;;;12.30;76.10;;;;;;5009905;28;20125;-46
2022/10/10 08:15:39;;;;;;;7.55;3.38;;;12.40;75.30;;;;;;5017011;28;20033;-47
2022/10/10 08:18:05;;;;;;;7.80;3.75;;;12.80;75.70;;;;;;5034352;28;20025;-48
2022/10/10 08:20:32;;;;;;;6.53;3.58;;;12.80;74.80;;;;;;5023140;28;20045;-50
2022/10/10 08:22:58;;;;;;;5.18;3.28;;;12.90;74.70;;;;;;5034199;28;20611;-47
2022/10/10 08:25:25;;;;;;;6.25;4.13;;;13.20;74.80;;;;;;5017070;28;20033;-48
2022/10/10 08:27:50;;;;;;;5.63;2.97;;;13.30;74.10;;;;;;5033418;28;20039;-50
2022/10/10 08:30:17;;;;;;;5.55;2.97;;;13.40;73.90;;;;;;5054659;28;20025;-49
2022/10/10 08:32:43;;;;;;;8.70;4.65;;;13.40;74.80;;;;;;5054413;28;20029;-52
2022/10/10 08:35:08;;;;;;;5.40;3.55;;;13.40;73.20;;;;;;5053314;28;20115;-48
2022/10/10 08:37:34;;;;;;;8.68;4.15;;;13.40;73.80;;;;;;5053240;28;20064;-48
2022/10/10 08:40:00;;;;;;;8.15;3.95;;;13.50;73.00;;;;;;5054101;28;20028;-49
2022/10/10 08:42:37;;;;;;;7.38;4.53;;;13.50;74.30;;;;;;5053411;28;20409;-47
2022/10/10 08:45:15;;;;;;;6.43;3.60;;;13.70;73.60;;;;;;5036709;28;20374;-48
2022/10/10 08:47:53;;;;;;;7.68;4.10;;;13.80;73.40;;;;;;5034609;28;20030;-46
2022/10/10 08:50:52;;;;;;;10.13;3.55;;;14.00;72.80;;;;;;5035699;28;20059;-48
2022/10/10 08:53:40;;;;;;;8.23;4.05;;;14.10;71.70;;;;;;5036444;28;20630;-50
2022/10/10 08:56:14;;;;;;;7.65;3.80;;;14.20;72.60;;;;;;5016482;28;20128;-47
2022/10/10 08:58:46;;;;;;;6.90;3.78;;;14.10;72.00;;;;;;5000647;28;20034;-47
2022/10/10 09:01:29;;;;;;;6.28;4.05;;;14.00;72.50;;;;;;5031695;28;20049;-49
2022/10/10 09:03:59;;;;;;;7.57;3.70;;;14.00;73.10;;;;;;5042240;28;20029;-52
2022/10/10 09:06:58;;;;;;;7.85;4.20;;;13.90;72.80;;;;;;5018654;28;20048;-50
2022/10/10 09:09:54;;;;;;;7.32;4.22;;;13.90;73.70;;;;;;5036250;28;20033;-50
2022/10/10 09:12:34;;;;;;;6.65;3.55;;;14.00;73.90;;;;;;5053393;28;20064;-48
2022/10/10 09:15:37;;;;;;;6.15;3.90;;;13.90;73.60;;;;;;5052729;28;20039;-47
2022/10/10 09:18:29;;;;;;;6.75;4.82;;;13.90;73.40;;;;;;5050280;28;20480;-49
2022/10/10 09:21:22;;;;;;;8.63;4.30;;;14.00;74.30;;;;;;5032569;28;20029;-47
2022/10/10 09:24:01;;;;;;;6.43;4.38;;;14.20;74.40;;;;;;5050644;28;20442;-47
2022/10/10 09:26:42;;;;;;;6.10;4.30;;;14.30;73.30;;;;;;5052003;28;20060;-48
2022/10/10 09:29:38;;;;;;;7.45;5.20;;;14.40;73.40;;;;;;5032810;28;20041;-49
2022/10/10 09:32:24;;;;;;;8.20;4.45;;;14.40;72.40;;;;;;5052333;28;20041;-47
2022/10/10 09:35:04;;;;;;;9.45;4.47;;;14.30;73.40;;;;;;5036036;28;20122;-50
2022/10/10 09:37:37;;;;;;;7.18;3.95;;;14.70;74.10;;;;;;5051350;28;20057;-48
2022/10/10 09:40:24;;;;;;;6.72;4.28;;;15.10;74.40;;;;;;5019682;28;20033;-47
2022/10/10 09:42:52;;;;;;;7.57;5.32;;;15.10;72.20;;;;;;5035668;28;20037;-47
2022/10/10 09:45:38;;;;;;;5.15;4.00;;;15.40;72.40;;;;;;5034743;28;20367;-47
2022/10/10 09:48:07;;;;;;;6.97;4.70;;;15.40;71.90;;;;;;5035755;28;20338;-48
2022/10/10 09:50:32;;;;;;;7.20;4.97;;;15.50;72.60;;;;;;5051337;28;20093;-48
2022/10/10 09:53:00;;;;;;;7.63;4.45;;;15.40;71.40;;;;;;5053184;28;20028;-47
2022/10/10 09:55:34;;;;;;;8.52;4.60;;;15.50;72.00;;;;;;5052181;28;20025;-47
2022/10/10 09:58:12;;;;;;;7.20;5.13;;;15.70;71.30;;;;;;5034803;28;20025;-46
2022/10/10 10:00:38;;;;;;;8.95;5.35;;;15.90;71.30;;;;;;5036965;28;20029;-49
2022/10/10 10:03:15;;;;;;;11.65;4.35;;;15.70;71.00;;;;;;5050039;28;20025;-47
2022/10/10 10:05:58;;;;;;;10.63;4.40;;;15.70;70.50;;;;;;5033123;28;20025;-48
2022/10/10 10:08:37;;;;;;;7.85;4.20;;;15.90;71.30;;;;;;5033033;28;20037;-46
2022/10/10 10:11:06;;;;;;;7.13;4.33;;;15.90;70.50;;;;;;5002164;28;20042;-50
2022/10/10 10:13:34;;;;;;;7.72;4.40;;;16.00;71.60;;;;;;5018608;28;20128;-47
2022/10/10 10:16:11;;;;;;;7.35;4.35;;;16.00;71.00;;;;;;5034451;28;20056;-51
2022/10/10 10:18:58;;;;;;;4.63;3.58;;;16.10;71.40;;;;;;5027749;28;20038;-49
2022/10/10 10:21:24;;;;;;;8.10;5.15;;;16.30;71.60;;;;;;5049841;28;20041;-47
2022/10/10 10:24:23;;;;;;;10.27;4.78;;;16.30;70.00;;;;;;5035541;28;20572;-46
2022/10/10 10:26:54;;;;;;;6.20;4.53;;;16.20;70.80;;;;;;5051735;28;20021;-48
2022/10/10 10:29:29;;;;;;;7.68;4.78;;;16.10;70.20;;;;;;5019353;28;20041;-53
2022/10/10 10:32:25;;;;;;;9.60;5.13;;;15.90;71.00;;;;;;5051739;28;20029;-52
2022/10/10 10:35:19;;;;;;;8.45;4.80;;;15.80;71.10;;;;;;5020967;28;20037;-47
2022/10/10 10:38:17;;;;;;;10.15;4.47;;;15.50;72.30;;;;;;5024836;28;20116;-47
2022/10/10 10:41:04;;;;;;;7.22;4.57;;;15.60;72.60;;;;;;5052774;28;20035;-49
2022/10/10 10:43:52;;;;;;;6.35;4.35;;;15.80;72.20;;;;;;5051716;28;20092;-50
2022/10/10 10:46:21;;;;;;;9.25;4.85;;;16.00;71.60;;;;;;5052892;28;20052;-48
2022/10/10 10:49:18;;;;;;;10.00;4.53;;;16.10;71.40;;;;;;5050872;28;20334;-47
2022/10/10 10:52:12;;;;;;;7.20;4.45;;;16.10;70.20;;;;;;5054871;28;20025;-49
2022/10/10 10:55:16;;;;;;;6.03;3.88;;;15.90;70.50;;;;;;5038704;28;20427;-49
2022/10/10 10:58:10;;;;;;;8.77;4.97;;;16.00;71.40;;;;;;5040364;28;20112;-48
2022/10/10 11:00:59;;;;;;;8.05;4.30;;;15.90;71.90;;;;;;5056283;28;20036;-48
2022/10/10 11:04:11;;;;;;;7.57;4.10;;;15.90;72.80;;;;;;5037696;28;20121;-48
2022/10/10 11:06:58;;;;;;;6.13;4.35;;;16.10;72.50;;;;;;5001914;28;20037;-49
2022/10/10 11:09:37;;;;;;;8.35;4.45;;;16.20;73.00;;;;;;5055015;28;20029;-48
2022/10/10 11:12:40;;;;;;;7.88;4.53;;;16.30;72.40;;;;;;5037323;28;20068;-48
2022/10/10 11:15:25;;;;;;;6.30;4.40;;;16.30;71.40;;;;;;5056203;28;20739;-46
2022/10/10 11:18:27;;;;;;;7.07;4.60;;;16.10;71.30;;;;;;5022135;28;20037;-47
2022/10/10 11:21:30;;;;;;;5.85;3.67;;;16.10;71.70;;;;;;5036378;28;20037;-49
2022/10/10 11:24:13;;;;;;;8.38;4.72;;;16.10;73.10;;;;;;5018768;28;20183;-49
2022/10/10 11:26:45;;;;;;;8.40;5.10;;;16.00;72.20;;;;;;5035747;28;20037;-49
2022/10/10 11:29:37;;;;;;;12.25;6.35;;;16.00;72.40;;;;;;4990354;28;20037;-48
2022/10/10 11:32:19;;;;;;;12.52;5.45;;;15.90;73.40;;;;;;5055153;28;20112;-48
2022/10/10 11:35:09;;;;;;;9.52;4.80;;;16.00;73.60;;;;;;5036078;28;20466;-48
2022/10/10 11:37:42;;;;;;;9.52;4.85;;;16.00;72.70;;;;;;5054199;28;20052;-51
2022/10/10 11:40:25;;;;;;;6.90;4.68;;;16.00;73.40;;;;;;5022545;28;20426;-46
2022/10/10 11:42:59;;;;;;;9.13;4.72;;;16.10;73.50;;;;;;5055349;28;20365;-48
2022/10/10 11:45:43;;;;;;;9.30;5.88;;;16.10;72.30;;;;;;5037066;28;20127;-48
2022/10/10 11:48:25;;;;;;;7.30;4.88;;;16.10;72.90;;;;;;5021538;28;20032;-50
2022/10/10 11:51:01;;;;;;;9.80;5.38;;;15.90;72.40;;;;;;5054406;28;20087;-46
2022/10/10 11:53:41;;;;;;;11.82;6.00;;;15.70;72.50;;;;;;5038632;28;20036;-50
2022/10/10 11:56:32;;;;;;;8.10;5.65;;;15.80;74.30;;;;;;5020322;28;20037;-47
2022/10/10 11:59:38;;;;;;;10.65;5.63;;;15.80;74.10;;;;;;5055303;28;20326;-50
2022/10/10 12:02:25;;;;;;;8.55;4.72;;;15.80;73.50;;;;;;5042147;28;20448;-50
2022/10/10 12:04:53;;;;;;;5.47;4.00;;;15.80;74.30;;;;;;5022089;28;20040;-46
2022/10/10 12:07:38;;;;;;;7.25;5.03;;;15.90;73.90;;;;;;5054154;28;20045;-49
2022/10/10 12:10:36;;;;;;;8.15;5.32;;;15.90;73.70;;;;;;5022291;28;20355;-50
2022/10/10 12:13:29;;;;;;;8.85;5.70;;;16.00;73.40;;;;;;5046187;28;20091;-49
2022/10/10 12:16:07;;;;;;;7.97;5.25;;;16.00;73.60;;;;;;5038879;28;20032;-50
2022/10/10 12:18:54;;;;;;;10.27;5.63;;;16.20;74.10;;;;;;5035860;28;20123;-49
2022/10/10 12:21:27;;;;;;;7.90;5.35;;;16.30;73.60;;;;;;5054631;28;20039;-48
2022/10/10 12:24:12;;;;;;;10.90;5.53;;;16.40;73.00;;;;;;5037995;28;20025;-50
2022/10/10 12:26:57;;;;;;;10.32;5.55;;;16.30;73.30;;;;;;5054742;28;20354;-48
2022/10/10 12:29:47;;;;;;;11.10;5.65;;;16.30;73.50;;;;;;5054174;28;20025;-48
2022/10/10 12:32:34;;;;;;;9.88;5.55;;;16.30;73.80;;;;;;5050275;28;20428;-50
2022/10/10 12:35:36;;;;;;;9.45;5.00;;;16.10;73.10;;;;;;5054398;28;20493;-48
2022/10/10 12:38:12;;;;;;;8.82;5.78;;;16.00;73.90;;;;;;5026780;28;20051;-50
2022/10/10 12:41:03;;;;;;;8.48;5.75;;;15.80;74.10;;;;;;5034518;28;20116;-49
2022/10/10 12:44:13;;;;;;;9.30;5.47;;;15.90;74.90;;;;;;5011805;28;20094;-47
2022/10/10 12:46:41;;;;;;;8.57;5.35;;;15.90;75.00;;;;;;5042209;28;20025;-48
2022/10/10 12:49:28;;;;;;;25.40;7.22;;;15.90;75.10;;;;;;5036865;28;20079;-49
2022/10/10 12:52:19;;;;;;;10.43;5.85;;;15.90;75.70;;;;;;5054151;28;20029;-49
2022/10/10 12:54:46;;;;;;;12.15;5.80;;;15.90;75.40;;;;;;5036364;28;20513;-51
2022/10/10 12:57:39;;;;;;;9.68;5.55;;;15.90;75.20;;;;;;5035923;28;20091;-48
2022/10/10 13:00:25;;;;;;;11.63;6.05;;;15.90;75.40;;;;;;5036447;28;20131;-49
2022/10/10 13:03:05;;;;;;;11.98;6.78;;;15.80;75.80;;;;;;5029365;28;20038;-47
2022/10/10 13:05:35;;;;;;;11.93;6.32;;;15.70;75.40;;;;;;5033873;28;20061;-47
2022/10/10 13:08:07;;;;;;;9.35;6.82;;;15.50;76.10;;;;;;5016787;28;20355;-47
2022/10/10 13:10:34;;;;;;;12.18;6.40;;;15.50;76.50;;;;;;5000600;28;20049;-49
2022/10/10 13:13:25;;;;;;;14.43;6.22;;;15.40;76.80;;;;;;5015706;28;20330;-49
2022/10/10 13:15:54;;;;;;;10.27;7.05;;;15.40;77.10;;;;;;5032236;28;20073;-46
2022/10/10 13:18:40;;;;;;;15.18;7.03;;;15.30;76.90;;;;;;5022068;28;20040;-49
2022/10/10 13:21:15;;;;;;;13.07;7.28;;;15.20;77.60;;;;;;5053470;28;20029;-47
2022/10/10 13:23:49;;;;;;;8.93;6.63;;;15.10;78.00;;;;;;5053300;28;20033;-47
2022/10/10 13:26:47;;;;;;;12.90;7.32;;;15.00;78.10;;;;;;5035530;28;20051;-44
2022/10/10 13:29:33;;;;;;;14.40;7.03;;;14.90;78.60;;;;;;5053813;28;20346;-43
2022/10/10 13:32:32;;;;;;;11.80;7.22;;;14.90;79.00;;;;;;5017845;28;20025;-46
2022/10/10 13:35:22;;;;;;;12.32;7.05;;;14.80;79.50;;;;;;5044663;28;20111;-49